createdAt,value
2019-04-07T00:01:50.752Z,37.30
2019-04-07T00:04:20.364Z,35.37
2019-04-07T00:06:49.747Z,39.20
2019-04-07T00:09:20.405Z,35.90
2019-04-07T00:11:49.967Z,37.37
2019-04-07T00:14:19.262Z,35.83
2019-04-07T00:16:48.662Z,36.20
2019-04-07T00:19:18.396Z,36.53
2019-04-07T00:21:47.949Z,38.80
2019-04-07T00:24:17.906Z,37.10
2019-04-07T00:26:47.567Z,34.90
2019-04-07T00:29:17.363Z,36.00
2019-04-07T00:31:46.727Z,38.67
2019-04-07T00:34:16.024Z,35.60
2019-04-07T00:36:45.877Z,38.40
2019-04-07T00:39:19.096Z,37.90
2019-04-07T00:41:48.455Z,38.97
2019-04-07T00:44:17.874Z,36.43
2019-04-07T00:46:47.660Z,34.77
2019-04-07T00:49:17.072Z,34.30
2019-04-07T00:51:47.562Z,36.40
2019-04-07T00:54:17.251Z,36.77
2019-04-07T00:56:46.782Z,36.73
2019-04-07T00:59:16.640Z,36.40
2019-04-07T01:01:46.278Z,37.10
2019-04-07T01:04:16.419Z,37.27
2019-04-07T01:06:45.770Z,37.50
2019-04-07T01:09:14.752Z,38.80
2019-04-07T01:11:44.268Z,37.47
2019-04-07T01:14:13.592Z,36.40
2019-04-07T01:16:43.006Z,36.40
2019-04-07T01:19:12.511Z,36.57
2019-04-07T01:21:41.960Z,36.80
2019-04-07T01:24:11.255Z,35.53
2019-04-07T01:26:41.385Z,36.27
2019-04-07T01:29:11.354Z,34.40
2019-04-07T01:31:40.734Z,36.57
2019-04-07T01:34:10.642Z,35.33
2019-04-07T01:36:39.868Z,35.50
2019-04-07T01:39:11.965Z,35.47
2019-04-07T01:42:00.286Z,34.03
2019-04-07T01:44:35.533Z,35.17
2019-04-07T01:47:33.157Z,35.10
2019-04-07T01:50:22.043Z,36.37
2019-04-07T01:53:10.516Z,36.87
2019-04-07T01:56:05.375Z,35.80
2019-04-07T01:58:44.667Z,36.37
2019-04-07T02:01:23.244Z,36.00
2019-04-07T02:04:14.782Z,35.37
2019-04-07T02:06:59.980Z,33.17
2019-04-07T02:09:44.388Z,34.90
2019-04-07T02:12:45.550Z,35.40
2019-04-07T02:15:21.990Z,36.23
2019-04-07T02:18:05.926Z,35.43
2019-04-07T02:21:03.362Z,36.20
2019-04-07T02:24:03.951Z,38.33
2019-04-07T02:26:48.596Z,34.97
2019-04-07T02:29:52.835Z,35.70
2019-04-07T02:32:31.271Z,34.77
2019-04-07T02:35:29.996Z,35.67
2019-04-07T02:38:21.087Z,34.70
2019-04-07T02:41:16.001Z,35.80
2019-04-07T02:43:53.058Z,34.77
2019-04-07T02:46:40.786Z,33.37
2019-04-07T02:49:26.313Z,35.30
2019-04-07T02:52:14.790Z,35.23
2019-04-07T02:54:59.347Z,35.00
2019-04-07T02:57:36.554Z,34.00
2019-04-07T03:00:16.895Z,36.70
2019-04-07T03:03:14.520Z,37.17
2019-04-07T03:05:48.155Z,34.88
2019-04-07T03:08:37.781Z,37.53
2019-04-07T03:11:18.024Z,38.00
2019-04-07T03:13:52.076Z,37.30
2019-04-07T03:16:27.970Z,38.48
2019-04-07T03:19:08.745Z,39.60
2019-04-07T03:21:43.074Z,37.70
2019-04-07T03:24:34.830Z,39.57
2019-04-07T03:27:27.134Z,38.02
2019-04-07T03:30:20.050Z,39.47
2019-04-07T03:33:11.206Z,41.42
2019-04-07T03:35:44.832Z,39.80
2019-04-07T03:38:31.865Z,37.80
2019-04-07T03:41:23.826Z,38.50
2019-04-07T03:44:03.249Z,38.03
2019-04-07T03:47:01.505Z,41.08
2019-04-07T03:49:41.453Z,39.73
2019-04-07T03:52:28.770Z,41.58
2019-04-07T03:55:17.183Z,42.03
2019-04-07T03:58:12.293Z,45.38
2019-04-07T04:01:27.357Z,39.70
2019-04-07T04:04:16.701Z,40.83
2019-04-07T04:07:17.166Z,41.92
2019-04-07T04:09:43.086Z,39.05
2019-04-07T04:12:31.879Z,40.45
2019-04-07T04:15:04.746Z,38.17
2019-04-07T04:17:34.481Z,38.85
2019-04-07T04:20:04.722Z,36.75
2019-04-07T04:22:34.138Z,39.27
2019-04-07T04:25:03.642Z,39.88
2019-04-07T04:27:33.271Z,39.42
2019-04-07T04:30:03.071Z,40.43
2019-04-07T04:32:32.875Z,35.35
2019-04-07T04:41:18.992Z,37.13
2019-04-07T04:43:49.161Z,36.75
2019-04-07T04:46:18.785Z,40.12
2019-04-07T04:48:49.447Z,38.92
2019-04-07T04:51:19.758Z,37.17
2019-04-07T04:53:53.750Z,36.48
2019-04-07T04:56:24.302Z,38.45
2019-04-07T04:58:58.622Z,39.23
2019-04-07T05:01:28.153Z,39.45
2019-04-07T05:03:58.481Z,38.63
2019-04-07T05:06:31.209Z,39.67
2019-04-07T05:09:06.811Z,38.42
2019-04-07T05:11:40.801Z,39.95
2019-04-07T05:14:16.422Z,42.05
2019-04-07T05:16:45.346Z,42.73
2019-04-07T05:19:14.492Z,43.42
2019-04-07T05:21:51.621Z,46.13
2019-04-07T05:24:43.199Z,44.35
2019-04-07T05:27:14.635Z,44.30
2019-04-07T05:29:43.680Z,46.05
2019-04-07T05:32:12.662Z,46.50
2019-04-07T05:34:42.302Z,45.35
2019-04-07T05:37:11.888Z,40.08
2019-04-07T05:39:41.154Z,41.92
2019-04-07T05:42:10.476Z,43.50
2019-04-07T05:44:39.799Z,41.08
2019-04-07T05:47:10.878Z,44.95
2019-04-07T05:49:39.663Z,43.95
2019-04-07T05:52:09.588Z,43.52
2019-04-07T05:54:39.426Z,40.90
2019-04-07T05:57:09.672Z,40.40
2019-04-07T05:59:39.893Z,40.05
2019-04-07T06:02:09.638Z,42.50
2019-04-07T06:04:39.380Z,40.30
2019-04-07T06:07:09.099Z,41.70
2019-04-07T06:09:38.539Z,39.78
2019-04-07T06:12:09.766Z,39.60
2019-04-07T06:14:38.984Z,39.27
2019-04-07T06:17:08.039Z,38.98
2019-04-07T06:19:40.575Z,38.25
2019-04-07T06:22:08.610Z,39.65
2019-04-07T06:24:39.315Z,39.73
2019-04-07T06:27:08.819Z,39.33
2019-04-07T06:29:38.030Z,36.55
2019-04-07T06:32:09.747Z,35.73
2019-04-07T06:34:41.014Z,33.95
2019-04-07T06:37:09.853Z,35.28
2019-04-07T06:39:39.114Z,34.37
2019-04-07T06:42:08.530Z,36.23
2019-04-07T06:44:37.738Z,34.63
2019-04-07T06:47:17.472Z,34.20
2019-04-07T06:50:15.694Z,32.20
2019-04-07T06:53:04.377Z,33.10
2019-04-07T06:55:40.799Z,32.50
2019-04-07T06:58:38.791Z,32.60
2019-04-07T07:01:37.357Z,35.47
2019-04-07T07:04:35.507Z,31.70
2019-04-07T07:07:31.411Z,33.37
2019-04-07T07:10:08.299Z,30.93
2019-04-07T07:12:47.485Z,32.30
2019-04-07T07:15:36.958Z,29.67
2019-04-07T07:18:27.398Z,27.43
2019-04-07T07:21:16.663Z,30.33
2019-04-07T07:23:48.882Z,30.47
2019-04-07T07:26:17.165Z,28.70
2019-04-07T07:28:46.947Z,31.20
2019-04-07T07:31:16.698Z,31.10
2019-04-07T07:33:45.695Z,30.87
2019-04-07T07:36:17.313Z,29.87
2019-04-07T07:38:56.892Z,28.00
2019-04-07T07:41:19.197Z,27.70
2019-04-07T07:43:48.144Z,27.93
2019-04-07T07:46:20.419Z,28.53
2019-04-07T07:48:48.086Z,26.70
2019-04-07T07:51:17.119Z,25.00
2019-04-07T07:53:46.168Z,27.33
2019-04-07T07:56:15.938Z,26.70
2019-04-07T07:58:45.156Z,25.67
2019-04-07T08:01:15.685Z,25.40
2019-04-07T08:03:45.821Z,24.60
2019-04-07T08:06:15.077Z,23.37
2019-04-07T08:08:46.197Z,24.00
2019-04-07T08:11:16.464Z,22.53
2019-04-07T08:13:46.165Z,22.80
2019-04-07T08:16:16.393Z,22.00
2019-04-07T08:18:46.698Z,21.93
2019-04-07T08:21:18.987Z,21.63
2019-04-07T08:23:47.140Z,20.90
2019-04-07T08:26:16.358Z,21.57
2019-04-07T08:28:45.337Z,19.20
2019-04-07T08:31:17.748Z,21.30
2019-04-07T08:33:45.157Z,23.40
2019-04-07T08:36:14.965Z,22.77
2019-04-07T08:38:43.990Z,20.80
2019-04-07T08:41:15.472Z,20.87
2019-04-07T08:43:43.614Z,19.77
2019-04-07T08:46:13.657Z,17.33
2019-04-07T08:48:43.034Z,18.93
2019-04-07T08:51:12.032Z,17.53
2019-04-07T08:53:43.505Z,18.00
2019-04-07T08:56:11.941Z,17.00
2019-04-07T08:58:41.398Z,17.33
2019-04-07T09:01:10.629Z,16.93
2019-04-07T09:03:39.999Z,17.30
2019-04-07T09:06:09.716Z,16.53
2019-04-07T09:08:39.835Z,15.33
2019-04-07T09:11:12.933Z,13.87
2019-04-07T09:13:46.585Z,15.40
2019-04-07T09:16:28.072Z,14.50
2019-04-07T09:19:09.425Z,13.40
2019-04-07T09:21:50.126Z,13.30
2019-04-07T09:24:45.009Z,14.70
2019-04-07T09:27:37.455Z,13.37
2019-04-07T09:30:17.587Z,14.17
2019-04-07T09:32:55.859Z,15.27
2019-04-07T09:35:58.753Z,13.43
2019-04-07T09:38:42.090Z,13.20
2019-04-07T09:41:42.647Z,14.90
2019-04-07T09:44:42.071Z,14.20
2019-04-07T09:47:39.830Z,13.77
2019-04-07T09:50:32.209Z,10.50
2019-04-07T09:53:21.408Z,14.10
2019-04-07T09:56:10.635Z,12.40
2019-04-07T09:58:58.142Z,11.33
2019-04-07T10:01:59.245Z,11.80
2019-04-07T10:04:31.171Z,10.70
2019-04-07T10:07:20.545Z,10.40
2019-04-07T10:10:10.143Z,9.43
2019-04-07T10:12:43.567Z,10.23
2019-04-07T10:15:44.247Z,10.17
2019-04-07T10:18:41.191Z,9.70
2019-04-07T10:21:32.479Z,9.20
2019-04-07T10:24:19.807Z,9.03
2019-04-07T10:27:06.987Z,8.90
2019-04-07T10:29:42.957Z,9.10
2019-04-07T10:32:30.941Z,10.50
2019-04-07T10:35:05.818Z,8.73
2019-04-07T10:37:45.293Z,8.13
2019-04-07T10:40:45.393Z,8.10
2019-04-07T10:43:21.894Z,9.23
2019-04-07T10:46:11.319Z,8.43
2019-04-07T10:49:00.254Z,7.53
2019-04-07T10:51:36.457Z,8.00
2019-04-07T10:54:27.276Z,8.53
2019-04-07T10:57:08.938Z,8.27
2019-04-07T10:59:57.814Z,10.10
2019-04-07T11:02:32.594Z,9.50
2019-04-07T11:05:26.970Z,10.07
2019-04-07T11:08:16.532Z,12.00
2019-04-07T11:11:03.542Z,10.73
2019-04-07T11:13:50.144Z,11.67
2019-04-07T11:16:53.738Z,11.50
2019-04-07T11:19:37.770Z,12.23
2019-04-07T11:22:25.393Z,11.90
2019-04-07T11:25:12.999Z,13.47
2019-04-07T11:28:10.024Z,12.10
2019-04-07T11:30:49.816Z,13.40
2019-04-07T11:33:24.512Z,12.30
2019-04-07T11:36:20.105Z,13.10
2019-04-07T11:38:58.495Z,14.83
2019-04-07T11:41:51.477Z,14.73
2019-04-07T11:44:42.685Z,14.63
2019-04-07T11:47:18.597Z,13.10
2019-04-07T11:50:10.500Z,15.20
2019-04-07T11:52:51.609Z,14.60
2019-04-07T11:55:29.122Z,15.73
2019-04-07T11:58:26.064Z,13.87
2019-04-07T12:01:15.674Z,15.93
2019-04-07T12:04:05.711Z,15.57
2019-04-07T12:06:49.821Z,15.30
2019-04-07T12:09:44.411Z,15.30
2019-04-07T12:12:34.360Z,15.33
2019-04-07T12:15:25.734Z,15.07
2019-04-07T12:18:18.911Z,14.77
2019-04-07T12:21:25.410Z,14.93
2019-04-07T12:24:12.383Z,14.00
2019-04-07T12:27:03.628Z,14.00
2019-04-07T12:29:44.514Z,14.13
2019-04-07T12:32:35.907Z,15.20
2019-04-07T12:35:21.475Z,16.00
2019-04-07T12:38:12.247Z,15.20
2019-04-07T12:40:56.366Z,13.43
2019-04-07T12:43:46.855Z,13.63
2019-04-07T12:46:38.918Z,13.43
2019-04-07T12:49:13.277Z,14.70
2019-04-07T12:52:00.230Z,15.40
2019-04-07T12:54:39.631Z,14.60
2019-04-07T12:57:25.271Z,14.77
2019-04-07T13:00:11.354Z,14.67
2019-04-07T13:02:59.778Z,16.10
2019-04-07T13:05:37.907Z,15.60
2019-04-07T13:08:25.764Z,16.23
2019-04-07T13:11:11.865Z,15.27
2019-04-07T13:14:06.150Z,15.13
2019-04-07T13:16:44.748Z,15.50
2019-04-07T13:19:27.579Z,15.47
2019-04-07T13:22:08.037Z,15.77
2019-04-07T13:24:57.810Z,16.90
2019-04-07T13:27:43.684Z,15.00
2019-04-07T13:30:47.709Z,16.90
2019-04-07T13:33:28.369Z,15.63
2019-04-07T13:36:23.591Z,15.53
2019-04-07T13:38:57.818Z,15.93
2019-04-07T13:41:40.836Z,15.90
2019-04-07T13:44:29.455Z,15.90
2019-04-07T13:47:09.514Z,16.20
2019-04-07T13:50:11.527Z,17.47
2019-04-07T13:53:03.009Z,16.57
2019-04-07T13:55:47.510Z,15.80
2019-04-07T13:58:29.273Z,17.90
2019-04-07T14:01:13.791Z,16.00
2019-04-07T14:04:13.839Z,16.33
2019-04-07T14:06:49.049Z,15.87
2019-04-07T14:09:35.355Z,16.47
2019-04-07T14:12:17.332Z,15.30
2019-04-07T14:15:08.363Z,15.20
2019-04-07T14:18:02.197Z,13.80
2019-04-07T14:20:48.740Z,14.00
2019-04-07T14:23:37.015Z,15.70
2019-04-07T14:26:37.791Z,14.57
2019-04-07T14:29:17.279Z,14.80
2019-04-07T14:32:04.520Z,14.07
2019-04-07T14:34:42.093Z,14.07
2019-04-07T14:37:36.266Z,15.13
2019-04-07T14:40:26.135Z,15.77
2019-04-07T14:43:29.892Z,14.73
2019-04-07T14:46:13.303Z,14.73
2019-04-07T14:48:53.247Z,13.30
2019-04-07T14:51:48.236Z,15.03
2019-04-07T14:57:32.928Z,14.00
2019-04-07T15:00:11.785Z,14.03
2019-04-07T15:02:41.166Z,14.03
2019-04-07T15:05:20.515Z,13.23
2019-04-07T15:08:00.000Z,11.90
2019-04-07T15:10:48.438Z,13.50
2019-04-07T15:13:23.893Z,12.67
2019-04-07T15:15:51.667Z,12.90
2019-04-07T15:18:21.552Z,13.63
2019-04-07T15:20:51.613Z,13.37
2019-04-07T15:23:21.665Z,14.43
2019-04-07T15:25:51.570Z,13.17
2019-04-07T15:28:21.538Z,13.80
2019-04-07T15:30:51.773Z,12.93
2019-04-07T15:33:21.191Z,14.40
2019-04-07T15:35:50.713Z,13.03
2019-04-07T15:38:23.780Z,13.60
2019-04-07T15:40:50.671Z,14.27
2019-04-07T15:43:19.975Z,13.13
2019-04-07T15:45:49.075Z,12.20
2019-04-07T15:48:18.039Z,13.20
2019-04-07T15:50:47.520Z,13.03
2019-04-07T15:53:16.692Z,13.87
2019-04-07T15:55:53.394Z,12.27
2019-04-07T15:58:17.036Z,14.07
2019-04-07T16:00:46.209Z,12.60
2019-04-07T16:03:16.555Z,13.20
2019-04-07T16:05:46.474Z,12.70
2019-04-07T16:08:16.159Z,14.13
2019-04-07T16:10:46.566Z,13.23
2019-04-07T16:13:15.922Z,14.37
2019-04-07T16:15:46.303Z,13.57
2019-04-07T16:18:15.645Z,15.60
2019-04-07T16:20:45.446Z,14.80
2019-04-07T16:23:17.451Z,16.40
2019-04-07T16:25:45.164Z,16.33
2019-04-07T16:28:15.965Z,15.50
2019-04-07T16:30:47.825Z,15.90
2019-04-07T16:33:16.316Z,15.37
2019-04-07T16:35:50.879Z,14.60
2019-04-07T16:38:16.403Z,14.10
2019-04-07T16:40:45.482Z,14.83
2019-04-07T16:43:17.371Z,16.50
2019-04-07T16:45:46.256Z,14.87
2019-04-07T16:48:16.271Z,17.03
2019-04-07T16:50:46.053Z,15.73
2019-04-07T16:53:16.336Z,16.10
2019-04-07T16:55:48.989Z,15.70
2019-04-07T16:58:16.199Z,16.43
2019-04-07T17:00:45.601Z,16.40
2019-04-07T17:03:15.389Z,17.13
2019-04-07T17:05:45.087Z,18.30
2019-04-07T17:08:18.572Z,17.67
2019-04-07T17:10:45.406Z,18.77
2019-04-07T17:13:20.123Z,18.00
2019-04-07T17:15:45.312Z,18.37
2019-04-07T17:18:36.858Z,19.67
2019-04-07T17:21:12.613Z,17.63
2019-04-07T17:23:41.382Z,17.77
2019-04-07T17:26:11.633Z,18.97
2019-04-07T17:28:44.689Z,18.50
2019-04-07T17:31:11.875Z,15.83
2019-04-07T17:33:41.511Z,18.20
2019-04-07T17:36:15.403Z,17.57
2019-04-07T17:38:47.847Z,17.90
2019-04-07T17:41:18.296Z,17.70
2019-04-07T17:43:59.348Z,17.97
2019-04-07T17:46:47.099Z,18.43
2019-04-07T17:49:35.560Z,17.30
2019-04-07T17:52:14.290Z,16.20
2019-04-07T17:55:18.543Z,18.30
2019-04-07T17:58:08.733Z,20.33
2019-04-07T18:00:56.446Z,19.23
2019-04-07T18:03:33.599Z,19.77
2019-04-07T18:06:16.044Z,17.53
2019-04-07T18:09:09.128Z,19.63
2019-04-07T18:11:41.396Z,19.60
2019-04-07T18:14:36.315Z,19.27
2019-04-07T18:17:31.397Z,19.17
2019-04-07T18:20:15.716Z,20.10
2019-04-07T18:23:07.951Z,19.33
2019-04-07T18:25:58.278Z,19.10
2019-04-07T18:28:41.255Z,18.30
2019-04-07T18:31:23.567Z,19.23
2019-04-07T18:34:05.781Z,17.90
2019-04-07T18:36:54.240Z,17.93
2019-04-07T18:39:51.688Z,19.67
2019-04-07T18:42:36.102Z,19.50
2019-04-07T18:45:15.764Z,19.40
2019-04-07T18:47:57.896Z,20.27
2019-04-07T18:50:41.384Z,19.40
2019-04-07T18:53:48.624Z,20.27
2019-04-07T18:56:34.629Z,19.43
2019-04-07T18:59:17.091Z,19.20
2019-04-07T19:02:08.603Z,18.80
2019-04-07T19:04:50.044Z,18.90
2019-04-07T19:07:48.689Z,21.47
2019-04-07T19:10:28.007Z,20.10
2019-04-07T19:13:15.599Z,19.30
2019-04-07T19:15:58.455Z,19.07
2019-04-07T19:18:46.347Z,19.67
2019-04-07T19:21:38.767Z,19.43
2019-04-07T19:24:31.436Z,19.30
2019-04-07T19:27:27.868Z,18.90
2019-04-07T19:30:16.796Z,19.67
2019-04-07T19:32:56.411Z,19.57
2019-04-07T19:35:51.680Z,20.07
2019-04-07T19:38:29.392Z,18.30
2019-04-07T19:41:33.718Z,19.90
2019-04-07T19:44:36.318Z,18.73
2019-04-07T19:47:04.452Z,19.20
2019-04-07T19:50:01.602Z,19.20
2019-04-07T19:52:43.012Z,20.20
2019-04-07T19:55:26.606Z,19.40
2019-04-07T19:58:17.990Z,20.83
2019-04-07T20:01:06.474Z,18.10
2019-04-07T20:03:51.746Z,19.20
2019-04-07T20:06:41.831Z,22.50
2019-04-07T20:09:32.070Z,23.17
2019-04-07T20:12:16.349Z,22.00
2019-04-07T20:15:13.963Z,24.23
2019-04-07T20:17:56.544Z,20.30
2019-04-07T20:20:43.511Z,20.23
2019-04-07T20:23:20.820Z,19.30
2019-04-07T20:26:18.595Z,19.37
2019-04-07T20:28:53.972Z,17.60
2019-04-07T20:31:41.626Z,19.60
2019-04-07T20:34:36.514Z,21.00
2019-04-07T20:37:42.767Z,19.57
2019-04-07T20:40:43.928Z,22.47
2019-04-07T20:43:21.804Z,20.30
2019-04-07T20:45:58.974Z,20.00
2019-04-07T20:48:59.317Z,21.03
2019-04-07T20:52:03.039Z,19.30
2019-04-07T20:54:50.887Z,20.80
2019-04-07T20:57:34.996Z,22.30
2019-04-07T21:00:26.399Z,21.00
2019-04-07T21:03:22.781Z,19.60
2019-04-07T21:06:16.970Z,22.87
2019-04-07T21:09:08.082Z,20.93
2019-04-07T21:12:01.145Z,21.67
2019-04-07T21:15:18.403Z,20.37
2019-04-07T21:17:58.947Z,21.80
2019-04-07T21:20:38.960Z,21.47
2019-04-07T21:23:19.527Z,21.70
2019-04-07T21:26:15.447Z,20.73
2019-04-07T21:28:54.577Z,22.10
2019-04-07T21:31:37.692Z,21.83
2019-04-07T21:34:22.845Z,22.13
2019-04-07T21:37:12.517Z,21.40
2019-04-07T21:39:53.785Z,23.03
2019-04-07T21:42:30.753Z,21.17
2019-04-07T21:45:32.657Z,24.00
2019-04-07T21:48:07.804Z,22.63
2019-04-07T21:50:48.311Z,25.10
2019-04-07T21:53:34.953Z,24.47
2019-04-07T21:56:16.320Z,21.60
2019-04-07T21:58:59.102Z,24.10
2019-04-07T22:01:41.174Z,25.47
2019-04-07T22:04:26.443Z,25.97
2019-04-07T22:07:07.640Z,26.07
2019-04-07T22:09:50.677Z,25.67
2019-04-07T22:12:18.850Z,23.90
2019-04-07T22:14:49.061Z,24.43
2019-04-07T22:17:19.194Z,22.40
2019-04-07T22:19:49.162Z,23.80
2019-04-07T22:22:18.636Z,23.23
2019-04-07T22:24:47.991Z,22.13
2019-04-07T22:27:23.256Z,24.03
2019-04-07T22:29:49.987Z,21.60
2019-04-07T22:32:22.095Z,23.60
2019-04-07T22:34:51.146Z,23.07
2019-04-07T22:37:22.078Z,22.10
2019-04-07T22:39:52.760Z,22.83
2019-04-07T22:42:22.607Z,23.27
2019-04-07T22:44:54.378Z,21.60
2019-04-07T22:47:23.677Z,25.40
2019-04-07T22:49:53.375Z,23.10
2019-04-07T22:52:22.895Z,23.60
2019-04-07T22:54:52.290Z,24.30
2019-04-07T22:57:21.964Z,25.23
2019-04-07T22:59:52.711Z,28.60
2019-04-07T23:02:22.123Z,31.00
2019-04-07T23:04:52.451Z,29.90
2019-04-07T23:07:22.261Z,29.10
2019-04-07T23:09:52.080Z,29.40
2019-04-07T23:12:21.656Z,30.10
2019-04-07T23:14:50.926Z,30.47
2019-04-07T23:17:20.299Z,28.80
2019-04-07T23:19:50.421Z,27.20
2019-04-07T23:22:20.280Z,29.17
2019-04-07T23:24:51.042Z,27.37
2019-04-07T23:27:20.705Z,27.60
2019-04-07T23:29:50.803Z,27.40
2019-04-07T23:32:21.679Z,26.73
2019-04-07T23:34:52.010Z,26.30
2019-04-07T23:37:22.121Z,28.90
2019-04-07T23:39:51.933Z,29.83
2019-04-07T23:42:22.128Z,34.27
2019-04-07T23:44:53.126Z,33.93
2019-04-07T23:47:23.595Z,32.70
2019-04-07T23:49:54.365Z,32.20
2019-04-07T23:52:25.137Z,30.83
2019-04-07T23:54:54.701Z,30.33
2019-04-07T23:57:24.002Z,29.00
2019-04-07T23:59:54.099Z,27.27
